createdAt,value
2024-04-05T00:00:18.785Z,66.15
2024-04-05T00:01:21.588Z,66.06
2024-04-05T00:02:24.138Z,65.92
2024-04-05T00:03:26.282Z,65.87
2024-04-05T00:04:28.542Z,65.68
2024-04-05T00:05:30.888Z,65.82
2024-04-05T00:06:33.317Z,65.87
2024-04-05T00:07:35.828Z,65.80
2024-04-05T00:08:38.037Z,65.84
2024-04-05T00:09:40.295Z,65.83
2024-04-05T00:10:42.897Z,65.86
2024-04-05T00:11:45.106Z,65.79
2024-04-05T00:12:58.401Z,65.74
2024-04-05T00:13:52.146Z,65.84
2024-04-05T00:14:54.405Z,65.78
2024-04-05T00:15:56.859Z,65.65
2024-04-05T00:16:59.119Z,65.61
2024-04-05T00:18:01.461Z,65.65
2024-04-05T00:19:03.481Z,65.59
2024-04-05T00:20:06.932Z,65.52
2024-04-05T00:21:09.503Z,65.61
2024-04-05T00:22:11.884Z,65.59
2024-04-05T00:23:14.901Z,65.62
2024-04-05T00:24:17.231Z,65.52
2024-04-05T00:25:21.363Z,65.51
2024-04-05T00:26:23.670Z,65.66
2024-04-05T00:27:25.897Z,65.60
2024-04-05T00:28:28.252Z,65.67
2024-04-05T00:29:30.367Z,65.74
2024-04-05T00:30:33.014Z,65.79
2024-04-05T00:31:35.345Z,65.80
2024-04-05T00:32:37.793Z,65.86
2024-04-05T00:33:40.094Z,65.91
2024-04-05T00:34:42.392Z,66.00
2024-04-05T00:35:53.503Z,66.05
2024-04-05T00:36:55.834Z,65.98
2024-04-05T00:37:58.052Z,65.89
2024-04-05T00:39:00.519Z,65.91
2024-04-05T00:40:03.049Z,66.02
2024-04-05T00:41:05.301Z,66.03
2024-04-05T00:42:07.602Z,66.01
2024-04-05T00:43:09.818Z,66.12
2024-04-05T00:44:12.376Z,66.22
2024-04-05T00:45:14.855Z,66.27
2024-04-05T00:46:16.995Z,66.30
2024-04-05T00:47:19.579Z,66.28
2024-04-05T00:48:22.854Z,66.41
2024-04-05T00:49:26.156Z,66.46
2024-04-05T00:50:29.785Z,66.52
2024-04-05T00:51:32.138Z,66.18
2024-04-05T00:52:34.971Z,66.08
2024-04-05T00:53:37.178Z,66.14
2024-04-05T00:54:39.887Z,66.14
2024-04-05T00:55:43.374Z,66.16
2024-04-05T00:56:46.709Z,66.23
2024-04-05T00:57:49.745Z,66.25
2024-04-05T00:58:52.523Z,66.22
2024-04-05T00:59:54.948Z,66.19
2024-04-05T01:00:57.710Z,66.25
2024-04-05T01:02:00.130Z,66.28
2024-04-05T01:03:03.049Z,66.34
2024-04-05T01:04:05.932Z,66.32
2024-04-05T01:05:08.346Z,66.34
2024-04-05T01:06:10.953Z,66.39
2024-04-05T01:07:13.305Z,66.35
2024-04-05T01:08:16.178Z,66.37
2024-04-05T01:09:19.754Z,66.37
2024-04-05T01:10:22.227Z,66.42
2024-04-05T01:11:24.604Z,66.67
2024-04-05T01:12:26.969Z,66.67
2024-04-05T01:13:29.195Z,66.70
2024-04-05T01:14:31.479Z,66.76
2024-04-05T01:15:34.667Z,66.81
2024-04-05T01:16:37.105Z,66.84
2024-04-05T01:17:39.599Z,66.91
2024-04-05T01:18:43.375Z,66.95
2024-04-05T01:19:46.470Z,66.93
2024-04-05T01:20:50.808Z,66.94
2024-04-05T01:21:53.873Z,67.00
2024-04-05T01:23:01.486Z,67.01
2024-04-05T01:24:04.213Z,66.93
2024-04-05T01:25:07.094Z,66.94
2024-04-05T01:26:09.977Z,67.04
2024-04-05T01:27:12.370Z,67.21
2024-04-05T01:28:15.530Z,67.33
2024-04-05T01:29:17.738Z,67.31
2024-04-05T01:30:20.246Z,67.38
2024-04-05T01:31:22.434Z,67.51
2024-04-05T01:32:24.713Z,67.50
2024-04-05T01:33:26.909Z,67.48
2024-04-05T01:34:29.375Z,67.51
2024-04-05T01:35:31.768Z,67.52
2024-04-05T01:36:34.259Z,67.52
2024-04-05T01:37:36.516Z,67.53
2024-04-05T01:38:38.734Z,67.61
2024-04-05T01:39:40.903Z,67.71
2024-04-05T01:40:43.133Z,67.87
2024-04-05T01:41:45.611Z,68.00
2024-04-05T01:42:47.852Z,68.07
2024-04-05T01:43:50.082Z,68.23
2024-04-05T01:44:52.442Z,68.32
2024-04-05T01:45:54.711Z,68.38
2024-04-05T01:46:57.214Z,68.38
2024-04-05T01:47:59.571Z,68.48
2024-04-05T01:49:01.896Z,68.50
2024-04-05T01:50:05.080Z,68.52
2024-04-05T01:51:07.379Z,68.58
2024-04-05T01:52:10.358Z,68.56
2024-04-05T01:53:12.586Z,68.58
2024-04-05T01:54:14.968Z,68.63
2024-04-05T01:55:17.599Z,68.76
2024-04-05T01:56:19.925Z,68.87
2024-04-05T01:57:22.243Z,68.97
2024-04-05T01:58:24.445Z,69.12
2024-04-05T01:59:26.948Z,69.28
2024-04-05T02:00:29.338Z,69.41
2024-04-05T02:01:34.431Z,69.47
2024-04-05T02:02:36.847Z,69.48
2024-04-05T02:03:39.186Z,69.51
2024-04-05T02:04:41.801Z,69.41
2024-04-05T02:05:44.087Z,69.42
2024-04-05T02:06:46.290Z,69.51
2024-04-05T02:07:48.805Z,69.64
2024-04-05T02:08:51.141Z,69.69
2024-04-05T02:09:53.473Z,69.69
2024-04-05T02:10:56.004Z,69.62
2024-04-05T02:11:58.983Z,69.59
2024-04-05T02:13:01.363Z,69.62
2024-04-05T02:14:03.860Z,69.63
2024-04-05T02:15:06.719Z,69.62
2024-04-05T02:16:09.384Z,69.56
2024-04-05T02:17:11.865Z,69.49
2024-04-05T02:18:14.081Z,69.47
2024-04-05T02:19:16.367Z,69.48
2024-04-05T02:20:18.621Z,69.46
2024-04-05T02:21:21.042Z,69.38
2024-04-05T02:22:23.161Z,69.33
2024-04-05T02:23:25.620Z,69.29
2024-04-05T02:24:28.145Z,69.27
2024-04-05T02:25:32.300Z,69.24
2024-04-05T02:26:34.708Z,69.24
2024-04-05T02:27:36.982Z,69.39
2024-04-05T02:28:39.401Z,69.50
2024-04-05T02:29:41.832Z,69.67
2024-04-05T02:30:44.509Z,69.89
2024-04-05T02:31:46.765Z,69.98
2024-04-05T02:32:49.195Z,70.10
2024-04-05T02:33:51.464Z,70.15
2024-04-05T02:34:53.624Z,70.25
2024-04-05T02:35:59.756Z,70.45
2024-04-05T02:37:02.283Z,70.54
2024-04-05T02:38:04.910Z,70.63
2024-04-05T02:39:07.046Z,70.73
2024-04-05T02:40:10.488Z,70.78
2024-04-05T02:41:12.831Z,70.89
2024-04-05T02:42:15.135Z,70.90
2024-04-05T02:43:17.418Z,70.95
2024-04-05T02:44:19.736Z,70.97
2024-04-05T02:45:22.031Z,70.95
2024-04-05T02:46:24.815Z,70.97
2024-04-05T02:47:27.130Z,70.97
2024-04-05T02:48:29.591Z,70.95
2024-04-05T02:49:31.771Z,70.95
2024-04-05T02:50:34.216Z,70.90
2024-04-05T02:51:36.749Z,70.83
2024-04-05T02:52:39.019Z,70.83
2024-04-05T02:53:41.361Z,70.73
2024-04-05T02:54:43.762Z,70.57
2024-04-05T02:55:45.994Z,70.39
2024-04-05T02:56:48.425Z,70.36
2024-04-05T02:57:50.822Z,70.18
2024-04-05T02:58:53.012Z,70.18
2024-04-05T02:59:55.368Z,70.22
2024-04-05T03:00:57.622Z,70.10
2024-04-05T03:01:59.854Z,70.16
2024-04-05T03:03:02.008Z,70.17
2024-04-05T03:04:04.512Z,70.13
2024-04-05T03:05:07.390Z,70.09
2024-04-05T03:06:09.709Z,70.08
2024-04-05T03:07:11.944Z,70.01
2024-04-05T03:08:14.327Z,70.01
2024-04-05T03:09:16.426Z,70.05
2024-04-05T03:10:18.786Z,70.20
2024-04-05T03:11:21.046Z,70.28
2024-04-05T03:12:23.469Z,70.20
2024-04-05T03:13:27.069Z,70.30
2024-04-05T03:14:29.533Z,70.34
2024-04-05T03:15:31.986Z,70.30
2024-04-05T03:16:34.194Z,70.31
2024-04-05T03:17:36.652Z,70.34
2024-04-05T03:18:39.078Z,70.30
2024-04-05T03:19:41.403Z,70.34
2024-04-05T03:20:43.509Z,70.37
2024-04-05T03:21:45.969Z,70.46
2024-04-05T03:22:48.162Z,70.55
2024-04-05T03:23:50.633Z,70.61
2024-04-05T03:24:52.991Z,70.69
2024-04-05T03:25:55.186Z,70.78
2024-04-05T03:26:57.670Z,70.74
2024-04-05T03:27:59.814Z,70.69
2024-04-05T03:29:02.184Z,70.58
2024-04-05T03:30:07.711Z,70.65
2024-04-05T03:31:09.368Z,70.62
2024-04-05T03:32:11.625Z,70.73
2024-04-05T03:33:13.934Z,70.80
2024-04-05T03:34:16.294Z,70.86
2024-04-05T03:35:18.657Z,70.87
2024-04-05T03:36:21.045Z,70.73
2024-04-05T03:37:23.336Z,70.57
2024-04-05T03:38:25.433Z,70.38
2024-04-05T03:39:27.868Z,70.25
2024-04-05T03:40:30.156Z,70.13
2024-04-05T03:41:32.379Z,70.19
2024-04-05T03:42:34.927Z,70.38
2024-04-05T03:43:38.957Z,70.56
2024-04-05T03:44:41.451Z,70.67
2024-04-05T03:45:43.569Z,70.70
2024-04-05T03:46:46.004Z,70.79
2024-04-05T03:47:48.125Z,70.90
2024-04-05T03:48:50.493Z,70.98
2024-04-05T03:49:52.709Z,71.06
2024-04-05T03:50:54.971Z,71.15
2024-04-05T03:51:57.295Z,71.14
2024-04-05T03:52:59.695Z,71.08
2024-04-05T03:54:01.957Z,71.14
2024-04-05T03:55:04.874Z,71.17
2024-04-05T03:56:08.020Z,71.13
2024-04-05T03:57:10.271Z,71.07
2024-04-05T03:58:12.368Z,71.01
2024-04-05T03:59:15.557Z,71.05
2024-04-05T04:00:20.019Z,71.10
2024-04-05T04:01:22.423Z,71.12
2024-04-05T04:02:24.746Z,71.02
2024-04-05T04:03:27.043Z,70.92
2024-04-05T04:04:29.367Z,70.98
2024-04-05T04:05:31.531Z,71.00
2024-04-05T04:06:33.920Z,70.96
2024-04-05T04:07:36.058Z,70.94
2024-04-05T04:08:38.511Z,70.96
2024-04-05T04:09:40.708Z,71.05
2024-04-05T04:10:43.166Z,71.15
2024-04-05T04:11:45.596Z,71.13
2024-04-05T04:12:47.625Z,71.08
2024-04-05T04:13:49.910Z,70.92
2024-04-05T04:14:52.068Z,70.77
2024-04-05T04:15:54.432Z,70.68
2024-04-05T04:16:56.660Z,70.64
2024-04-05T04:18:01.489Z,70.68
2024-04-05T04:19:03.918Z,70.78
2024-04-05T04:20:07.617Z,70.79
2024-04-05T04:21:10.006Z,70.84
2024-04-05T04:22:12.341Z,70.83
2024-04-05T04:23:14.611Z,70.87
2024-04-05T04:24:17.015Z,70.84
2024-04-05T04:25:20.977Z,70.82
2024-04-05T04:26:23.285Z,70.81
2024-04-05T04:27:25.427Z,70.78
2024-04-05T04:28:27.700Z,70.70
2024-04-05T04:29:29.657Z,70.62
2024-04-05T04:30:32.126Z,70.57
2024-04-05T04:31:34.620Z,70.51
2024-04-05T04:32:36.852Z,70.48
2024-04-05T04:33:39.194Z,70.48
2024-04-05T04:34:42.149Z,70.39
2024-04-05T04:35:45.456Z,70.29
2024-04-05T04:36:47.860Z,70.23
2024-04-05T04:37:50.092Z,70.17
2024-04-05T04:38:52.557Z,70.16
2024-04-05T04:39:54.966Z,70.12
2024-04-05T04:40:57.369Z,70.10
2024-04-05T04:41:59.674Z,70.04
2024-04-05T04:43:01.940Z,69.94
2024-04-05T04:44:04.769Z,69.88
2024-04-05T04:45:07.958Z,69.82
2024-04-05T04:46:11.575Z,69.76
2024-04-05T04:47:14.060Z,69.84
2024-04-05T04:48:16.407Z,69.83
2024-04-05T04:49:19.236Z,69.84
2024-04-05T04:50:21.664Z,69.80
2024-04-05T04:51:24.444Z,69.79
2024-04-05T04:52:26.832Z,69.86
2024-04-05T04:53:28.993Z,69.88
2024-04-05T04:54:32.386Z,69.79
2024-04-05T04:55:37.276Z,69.64
2024-04-05T04:56:39.773Z,69.58
2024-04-05T04:57:45.748Z,69.52
2024-04-05T04:58:48.242Z,69.55
2024-04-05T04:59:51.813Z,69.41
2024-04-05T05:00:54.444Z,69.20
2024-04-05T05:01:56.821Z,69.11
2024-04-05T05:02:59.422Z,68.97
2024-04-05T05:04:04.144Z,68.71
2024-04-05T05:05:06.440Z,68.58
2024-04-05T05:06:08.943Z,68.42
2024-04-05T05:07:11.424Z,68.28
2024-04-05T05:08:13.986Z,68.27
2024-04-05T05:09:16.886Z,68.09
2024-04-05T05:10:19.457Z,67.90
2024-04-05T05:11:24.046Z,67.98
2024-04-05T05:12:26.598Z,68.02
2024-04-05T05:13:30.116Z,67.96
2024-04-05T05:14:32.530Z,67.97
2024-04-05T05:15:35.266Z,67.84
2024-04-05T05:16:37.761Z,67.73
2024-04-05T05:17:40.248Z,67.66
2024-04-05T05:18:42.740Z,67.55
2024-04-05T05:19:45.447Z,67.61
2024-04-05T05:20:48.854Z,67.49
2024-04-05T05:21:51.112Z,67.05
2024-04-05T05:22:56.992Z,66.68
2024-04-05T05:23:59.449Z,66.60
2024-04-05T05:25:02.200Z,66.58
2024-04-05T05:26:05.319Z,66.57
2024-04-05T05:27:07.872Z,66.34
2024-04-05T05:28:12.495Z,66.18
2024-04-05T05:29:14.805Z,66.04
2024-04-05T05:30:17.393Z,66.13
2024-04-05T05:31:19.930Z,66.11
2024-04-05T05:32:22.254Z,65.96
2024-04-05T05:33:24.512Z,65.73
2024-04-05T05:34:26.958Z,65.46
2024-04-05T05:35:29.349Z,65.35
2024-04-05T05:36:31.850Z,65.18
2024-04-05T05:37:34.525Z,64.54
2024-04-05T05:38:36.711Z,64.14
2024-04-05T05:39:39.316Z,63.82
2024-04-05T05:40:41.670Z,63.50
2024-04-05T05:41:44.093Z,63.45
2024-04-05T05:42:46.323Z,63.53
2024-04-05T05:43:49.953Z,63.54
2024-04-05T05:44:52.400Z,63.57
2024-04-05T05:45:54.603Z,63.59
2024-04-05T05:46:57.055Z,63.62
2024-04-05T05:47:59.323Z,63.70
2024-04-05T05:49:01.560Z,63.74
2024-04-05T05:50:04.572Z,63.64
2024-04-05T05:51:07.034Z,63.39
2024-04-05T05:52:09.412Z,63.24
2024-04-05T05:53:11.509Z,63.11
2024-04-05T05:54:13.911Z,63.06
2024-04-05T05:55:16.569Z,63.00
2024-04-05T05:56:18.836Z,62.89
2024-04-05T05:57:21.412Z,62.87
2024-04-05T05:58:23.874Z,62.81
2024-04-05T05:59:26.336Z,62.58
2024-04-05T06:00:29.156Z,62.41
2024-04-05T06:01:31.984Z,62.35
2024-04-05T06:02:38.598Z,62.14
2024-04-05T06:03:41.525Z,61.77
2024-04-05T06:04:43.845Z,61.60
2024-04-05T06:05:52.427Z,61.53
2024-04-05T06:06:55.793Z,61.47
2024-04-05T06:07:58.126Z,61.42
2024-04-05T06:09:00.601Z,61.50
2024-04-05T06:10:03.567Z,61.58
2024-04-05T06:11:06.372Z,61.21
2024-04-05T06:12:10.769Z,61.14
2024-04-05T06:13:13.222Z,61.10
2024-04-05T06:14:16.214Z,60.68
2024-04-05T06:15:18.651Z,60.86
2024-04-05T06:16:21.098Z,60.90
2024-04-05T06:17:24.155Z,61.03
2024-04-05T06:18:28.308Z,61.10
2024-04-05T06:19:44.324Z,61.03
2024-04-05T06:20:55.438Z,60.84
2024-04-05T06:21:57.814Z,60.71
2024-04-05T06:23:00.246Z,60.51
2024-04-05T06:24:02.945Z,60.39
2024-04-05T06:25:18.463Z,60.43
2024-04-05T06:26:20.899Z,60.50
2024-04-05T06:27:23.763Z,60.23
2024-04-05T06:28:26.854Z,60.24
2024-04-05T06:29:29.510Z,60.48
2024-04-05T06:30:31.729Z,60.42
2024-04-05T06:31:35.468Z,60.27
2024-04-05T06:32:37.843Z,59.66
2024-04-05T06:33:40.095Z,59.48
2024-04-05T06:34:42.971Z,59.48
2024-04-05T06:35:45.868Z,59.10
2024-04-05T06:36:48.259Z,58.94
2024-04-05T06:37:50.695Z,58.82
2024-04-05T06:38:53.124Z,58.86
2024-04-05T06:39:55.676Z,58.46
2024-04-05T06:41:01.024Z,58.26
2024-04-05T06:42:03.810Z,58.16
2024-04-05T06:43:08.409Z,58.08
2024-04-05T06:44:11.094Z,57.90
2024-04-05T06:45:13.497Z,57.64
2024-04-05T06:46:15.805Z,57.54
2024-04-05T06:47:18.271Z,57.54
2024-04-05T06:48:20.492Z,57.59
2024-04-05T06:49:22.843Z,57.41
2024-04-05T06:50:25.219Z,57.40
2024-04-05T06:51:27.386Z,57.47
2024-04-05T06:52:29.779Z,57.67
2024-04-05T06:53:32.012Z,57.99
2024-04-05T06:54:44.129Z,58.20
2024-04-05T06:55:49.791Z,58.18
2024-04-05T06:56:52.387Z,58.45
2024-04-05T06:57:54.588Z,58.45
2024-04-05T06:58:57.070Z,58.43
2024-04-05T06:59:59.296Z,58.45
2024-04-05T07:01:02.155Z,58.29
2024-04-05T07:02:17.616Z,58.21
2024-04-05T07:03:20.130Z,58.15
2024-04-05T07:04:22.364Z,57.91
2024-04-05T07:05:24.705Z,57.78
2024-04-05T07:06:26.958Z,57.74
2024-04-05T07:07:29.373Z,58.03
2024-04-05T07:08:31.758Z,58.12
2024-04-05T07:09:34.096Z,58.27
2024-04-05T07:10:48.146Z,58.29
2024-04-05T07:11:41.483Z,58.23
2024-04-05T07:12:43.948Z,58.18
2024-04-05T07:13:46.462Z,58.13
2024-04-05T07:14:48.984Z,58.05
2024-04-05T07:15:51.559Z,58.00
2024-04-05T07:16:53.796Z,57.73
2024-04-05T07:17:56.335Z,57.46
2024-04-05T07:18:58.728Z,57.26
2024-04-05T07:20:01.199Z,57.35
2024-04-05T07:21:04.272Z,57.58
2024-04-05T07:22:06.642Z,57.62
2024-04-05T07:23:09.036Z,57.40
2024-04-05T07:24:11.220Z,57.24
2024-04-05T07:25:14.037Z,57.42
2024-04-05T07:26:16.311Z,57.46
2024-04-05T07:27:18.760Z,57.25
2024-04-05T07:28:21.187Z,57.22
2024-04-05T07:29:23.591Z,57.11
2024-04-05T07:30:26.186Z,56.71
2024-04-05T07:31:29.402Z,56.40
2024-04-05T07:32:32.155Z,56.63
2024-04-05T07:33:34.469Z,56.68
2024-04-05T07:34:36.781Z,56.20
2024-04-05T07:35:39.301Z,55.96
2024-04-05T07:36:41.762Z,56.08
2024-04-05T07:37:50.503Z,55.73
2024-04-05T07:38:53.036Z,55.01
2024-04-05T07:39:55.914Z,54.71
2024-04-05T07:41:06.426Z,54.52
2024-04-05T07:42:08.783Z,54.54
2024-04-05T07:43:11.030Z,54.55
2024-04-05T07:44:14.285Z,54.37
2024-04-05T07:45:16.894Z,54.28
2024-04-05T07:46:19.302Z,54.17
2024-04-05T07:47:21.543Z,54.24
2024-04-05T07:48:24.095Z,54.26
2024-04-05T07:49:26.274Z,54.36
2024-04-05T07:50:28.626Z,54.25
2024-04-05T07:51:31.617Z,53.73
2024-04-05T07:52:34.060Z,53.63
2024-04-05T07:53:36.215Z,53.64
2024-04-05T07:54:42.193Z,53.39
2024-04-05T07:55:44.581Z,53.23
2024-04-05T07:56:48.215Z,53.22
2024-04-05T07:57:51.696Z,52.80
2024-04-05T07:58:54.112Z,52.46
2024-04-05T07:59:56.560Z,52.23
2024-04-05T08:00:59.133Z,52.41
2024-04-05T08:02:01.599Z,51.91
2024-04-05T08:03:04.395Z,51.70
2024-04-05T08:04:06.683Z,51.41
2024-04-05T08:05:09.101Z,51.16
2024-04-05T08:06:11.577Z,51.12
2024-04-05T08:07:14.058Z,51.06
2024-04-05T08:08:16.582Z,51.29
2024-04-05T08:09:18.965Z,51.10
2024-04-05T08:10:21.278Z,50.91
2024-04-05T08:11:23.578Z,50.87
2024-04-05T08:12:26.059Z,50.49
2024-04-05T08:13:28.646Z,50.32
2024-04-05T08:14:30.936Z,50.30
2024-04-05T08:15:33.653Z,50.23
2024-04-05T08:16:39.085Z,50.57
2024-04-05T08:17:41.522Z,50.43
2024-04-05T08:18:44.039Z,49.78
2024-04-05T08:19:46.572Z,49.54
2024-04-05T08:20:48.838Z,49.58
2024-04-05T08:21:51.145Z,49.50
2024-04-05T08:22:53.487Z,49.51
2024-04-05T08:23:56.011Z,49.59
2024-04-05T08:24:58.788Z,49.46
2024-04-05T08:26:01.496Z,49.39
2024-04-05T08:27:04.497Z,49.13
2024-04-05T08:28:06.809Z,48.68
2024-04-05T08:29:09.080Z,48.78
2024-04-05T08:30:12.108Z,49.03
2024-04-05T08:31:14.371Z,49.06
2024-04-05T08:32:16.725Z,48.89
2024-04-05T08:33:19.637Z,48.74
2024-04-05T08:34:22.516Z,48.73
2024-04-05T08:35:24.936Z,48.86
2024-04-05T08:36:27.535Z,48.41
2024-04-05T08:37:29.995Z,48.63
2024-04-05T08:38:32.274Z,48.29
2024-04-05T08:39:34.960Z,48.41
2024-04-05T08:40:39.903Z,48.47
2024-04-05T08:41:44.634Z,48.48
2024-04-05T08:42:48.842Z,48.47
2024-04-05T08:43:52.958Z,48.72
2024-04-05T08:44:55.954Z,48.60
2024-04-05T08:45:58.486Z,47.92
2024-04-05T08:47:02.215Z,47.77
2024-04-05T08:48:05.585Z,47.98
2024-04-05T08:49:08.698Z,47.86
2024-04-05T08:50:13.077Z,48.01
2024-04-05T08:51:16.147Z,47.91
2024-04-05T08:52:18.852Z,47.52
2024-04-05T08:53:21.395Z,47.23
2024-04-05T08:54:23.995Z,47.28
2024-04-05T08:55:28.332Z,47.16
2024-04-05T08:56:31.393Z,47.09
2024-04-05T08:57:38.742Z,47.29
2024-04-05T08:58:42.651Z,46.84
2024-04-05T08:59:49.774Z,47.13
2024-04-05T09:00:51.833Z,47.32
2024-04-05T09:02:07.233Z,47.45
2024-04-05T09:03:09.546Z,47.06
2024-04-05T09:04:13.444Z,47.12
2024-04-05T09:05:17.926Z,46.96
2024-04-05T09:06:20.578Z,46.77
2024-04-05T09:07:23.128Z,46.70
2024-04-05T09:08:25.594Z,46.78
2024-04-05T09:09:29.207Z,46.78
2024-04-05T09:10:33.407Z,46.69
2024-04-05T09:11:35.914Z,46.59
2024-04-05T09:12:49.600Z,46.67
2024-04-05T09:13:57.341Z,46.56
2024-04-05T09:14:59.930Z,46.36
2024-04-05T09:16:02.327Z,46.66
2024-04-05T09:17:15.818Z,46.46
2024-04-05T09:18:26.542Z,45.93
2024-04-05T09:19:28.880Z,45.27
2024-04-05T09:20:31.577Z,45.33
2024-04-05T09:21:34.621Z,45.23
2024-04-05T09:22:36.831Z,44.73
2024-04-05T09:23:48.443Z,44.75
2024-04-05T09:25:02.745Z,44.68
2024-04-05T09:26:05.318Z,44.86
2024-04-05T09:27:07.744Z,45.15
2024-04-05T09:28:12.571Z,45.02
2024-04-05T09:29:15.779Z,44.85
2024-04-05T09:30:18.425Z,45.28
2024-04-05T09:31:21.382Z,45.45
2024-04-05T09:32:23.608Z,45.49
2024-04-05T09:33:26.115Z,45.69
2024-04-05T09:34:30.156Z,45.84
2024-04-05T09:35:37.843Z,45.43
2024-04-05T09:36:40.517Z,44.46
2024-04-05T09:37:43.147Z,44.53
2024-04-05T09:38:46.118Z,44.69
2024-04-05T09:39:50.100Z,44.60
2024-04-05T09:40:52.951Z,44.49
2024-04-05T09:41:55.169Z,44.31
2024-04-05T09:42:58.887Z,44.21
2024-04-05T09:44:10.255Z,43.68
2024-04-05T09:45:08.823Z,43.61
2024-04-05T09:46:13.009Z,43.33
2024-04-05T09:47:18.006Z,42.11
2024-04-05T09:48:22.021Z,41.88
2024-04-05T09:49:25.615Z,42.16
2024-04-05T09:50:30.568Z,42.09
2024-04-05T09:51:42.723Z,42.17
2024-04-05T09:52:45.331Z,42.63
2024-04-05T09:53:50.855Z,42.10
2024-04-05T09:54:56.261Z,42.20
2024-04-05T09:56:00.659Z,42.30
2024-04-05T09:57:03.901Z,41.41
2024-04-05T09:58:06.726Z,41.35
2024-04-05T09:59:15.555Z,41.05
2024-04-05T10:00:21.750Z,40.60
2024-04-05T10:01:24.252Z,40.81
2024-04-05T10:02:29.190Z,40.80
2024-04-05T10:03:31.844Z,40.86
2024-04-05T10:04:37.301Z,41.13
2024-04-05T10:05:39.441Z,41.36
2024-04-05T10:06:42.534Z,40.61
2024-04-05T10:07:44.835Z,40.84
2024-04-05T10:08:47.354Z,40.76
2024-04-05T10:09:49.699Z,40.83
2024-04-05T10:10:54.156Z,40.70
2024-04-05T10:11:56.571Z,40.76
2024-04-05T10:13:11.227Z,40.48
2024-04-05T10:14:27.796Z,40.49
2024-04-05T10:15:30.831Z,40.03
2024-04-05T10:16:34.825Z,40.48
2024-04-05T10:17:38.043Z,40.33
2024-04-05T10:18:41.316Z,40.18
2024-04-05T10:19:44.811Z,39.65
2024-04-05T10:20:52.165Z,39.54
2024-04-05T10:22:04.872Z,39.46
2024-04-05T10:23:11.370Z,39.75
2024-04-05T10:24:14.630Z,39.51
2024-04-05T10:25:17.966Z,39.54
2024-04-05T10:26:21.314Z,39.80
2024-04-05T10:27:27.004Z,39.58
2024-04-05T10:28:30.180Z,39.80
2024-04-05T10:29:32.620Z,39.76
2024-04-05T10:30:35.620Z,39.65
2024-04-05T10:31:41.486Z,39.55
2024-04-05T10:32:48.711Z,39.51
2024-04-05T10:33:51.299Z,39.39
2024-04-05T10:34:57.321Z,39.45
2024-04-05T10:36:00.909Z,39.41
2024-04-05T10:37:06.833Z,38.99
2024-04-05T10:38:19.292Z,38.78
2024-04-05T10:39:14.373Z,38.72
2024-04-05T10:40:17.628Z,39.02
2024-04-05T10:41:20.114Z,38.68
2024-04-05T10:42:26.475Z,38.54
2024-04-05T10:43:31.202Z,38.34
2024-04-05T10:44:33.733Z,38.39
2024-04-05T10:45:36.895Z,38.21
2024-04-05T10:46:40.053Z,38.23
2024-04-05T10:47:53.198Z,38.53
2024-04-05T10:48:59.172Z,38.48
2024-04-05T10:50:04.178Z,38.42
2024-04-05T10:51:06.366Z,38.34
2024-04-05T10:52:09.032Z,38.30
2024-04-05T10:53:14.993Z,38.15
2024-04-05T10:54:17.308Z,38.27
2024-04-05T10:55:22.268Z,37.57
2024-04-05T10:56:24.839Z,37.65
2024-04-05T10:57:30.476Z,37.54
2024-04-05T10:58:35.531Z,37.76
2024-04-05T10:59:37.988Z,38.01
2024-04-05T11:00:41.397Z,37.66
2024-04-05T11:01:44.084Z,37.75
2024-04-05T11:02:46.551Z,37.97
2024-04-05T11:03:48.824Z,37.27
2024-04-05T11:04:51.111Z,37.11
2024-04-05T11:05:57.153Z,37.10
2024-04-05T11:07:00.365Z,37.13
2024-04-05T11:08:06.071Z,37.11
2024-04-05T11:09:09.529Z,37.03
2024-04-05T11:10:27.200Z,36.71
2024-04-05T11:11:24.133Z,36.86
2024-04-05T11:12:26.458Z,36.48
2024-04-05T11:13:28.725Z,36.63
2024-04-05T11:14:31.606Z,36.26
2024-04-05T11:15:34.092Z,35.51
2024-04-05T11:16:37.670Z,35.81
2024-04-05T11:17:40.306Z,36.19
2024-04-05T11:18:42.714Z,35.81
2024-04-05T11:19:45.278Z,35.88
2024-04-05T11:20:50.642Z,36.06
2024-04-05T11:22:04.549Z,35.97
2024-04-05T11:23:17.189Z,35.89
2024-04-05T11:24:21.551Z,35.84
2024-04-05T11:25:30.313Z,35.64
2024-04-05T11:26:37.251Z,35.15
2024-04-05T11:27:40.462Z,34.88
2024-04-05T11:28:45.199Z,34.71
2024-04-05T11:29:51.202Z,35.09
2024-04-05T11:30:55.027Z,35.36
2024-04-05T11:31:59.620Z,35.42
2024-04-05T11:33:03.541Z,35.54
2024-04-05T11:34:06.460Z,35.11
2024-04-05T11:35:10.341Z,35.49
2024-04-05T11:36:12.980Z,35.55
2024-04-05T11:37:15.403Z,34.97
2024-04-05T11:38:17.880Z,35.18
2024-04-05T11:39:20.221Z,35.36
2024-04-05T11:40:32.932Z,34.95
2024-04-05T11:41:27.621Z,34.86
2024-04-05T11:42:30.202Z,34.70
2024-04-05T11:43:33.594Z,34.79
2024-04-05T11:44:36.022Z,35.03
2024-04-05T11:45:38.387Z,34.95
2024-04-05T11:46:40.721Z,35.03
2024-04-05T11:47:44.453Z,35.08
2024-04-05T11:48:47.016Z,35.22
2024-04-05T11:49:52.234Z,35.26
2024-04-05T11:50:54.642Z,34.86
2024-04-05T11:51:57.036Z,35.00
2024-04-05T11:52:59.587Z,34.94
2024-04-05T11:54:02.112Z,35.01
2024-04-05T11:55:05.150Z,34.97
2024-04-05T11:56:08.003Z,35.26
2024-04-05T11:57:12.681Z,35.33
2024-04-05T11:58:14.990Z,35.48
2024-04-05T11:59:18.477Z,34.93
2024-04-05T12:00:20.989Z,35.10
2024-04-05T12:01:23.414Z,34.61
2024-04-05T12:02:25.786Z,34.71
2024-04-05T12:03:27.940Z,34.64
2024-04-05T12:04:30.261Z,34.36
2024-04-05T12:05:32.600Z,34.06
2024-04-05T12:06:35.218Z,33.92
2024-04-05T12:07:38.148Z,34.00
2024-04-05T12:08:40.351Z,33.52
2024-04-05T12:09:43.112Z,33.39
2024-04-05T12:10:45.413Z,33.79
2024-04-05T12:11:49.703Z,34.07
2024-04-05T12:12:52.017Z,34.12
2024-04-05T12:13:54.381Z,33.68
2024-04-05T12:14:57.904Z,33.37
2024-04-05T12:16:00.587Z,33.66
2024-04-05T12:17:03.544Z,33.53
2024-04-05T12:18:07.710Z,33.17
2024-04-05T12:19:09.918Z,33.07
2024-04-05T12:20:14.439Z,32.76
2024-04-05T12:21:17.161Z,32.40
2024-04-05T12:22:19.841Z,32.50
2024-04-05T12:23:22.036Z,32.71
2024-04-05T12:24:24.542Z,32.93
2024-04-05T12:25:28.629Z,33.03
2024-04-05T12:26:36.973Z,32.93
2024-04-05T12:27:35.422Z,33.19
2024-04-05T12:28:37.879Z,33.46
2024-04-05T12:29:40.108Z,33.29
2024-04-05T12:30:43.624Z,33.09
2024-04-05T12:31:46.088Z,33.42
2024-04-05T12:32:48.266Z,33.44
2024-04-05T12:33:50.700Z,33.26
2024-04-05T12:34:53.073Z,33.36
2024-04-05T12:35:56.851Z,33.03
2024-04-05T12:36:59.397Z,32.98
2024-04-05T12:38:01.599Z,33.25
2024-04-05T12:39:04.038Z,33.51
2024-04-05T12:40:08.343Z,33.23
2024-04-05T12:41:10.964Z,33.21
2024-04-05T12:42:13.352Z,33.16
2024-04-05T12:43:15.558Z,33.14
2024-04-05T12:44:20.937Z,33.38
2024-04-05T12:45:22.533Z,32.32
2024-04-05T12:46:25.065Z,32.17
2024-04-05T12:47:27.549Z,31.99
2024-04-05T12:48:29.782Z,31.99
2024-04-05T12:49:32.252Z,32.08
2024-04-05T12:50:34.519Z,32.03
2024-04-05T12:51:36.908Z,32.17
2024-04-05T12:52:39.246Z,32.06
2024-04-05T12:53:41.576Z,31.99
2024-04-05T12:54:43.872Z,31.82
2024-04-05T12:55:57.247Z,32.12
2024-04-05T12:57:02.759Z,32.11
2024-04-05T12:58:05.183Z,31.47
2024-04-05T12:59:08.250Z,31.54
2024-04-05T13:00:12.002Z,31.19
2024-04-05T13:01:14.523Z,30.97
2024-04-05T13:02:17.811Z,31.10
2024-04-05T13:03:21.047Z,31.31
2024-04-05T13:04:23.719Z,31.01
2024-04-05T13:05:26.071Z,30.44
2024-04-05T13:06:28.672Z,30.83
2024-04-05T13:07:30.974Z,30.21
2024-04-05T13:08:34.348Z,30.55
2024-04-05T13:09:36.992Z,30.09
2024-04-05T13:10:39.534Z,30.00
2024-04-05T13:11:42.074Z,29.83
2024-04-05T13:12:44.498Z,30.04
2024-04-05T13:13:47.629Z,29.76
2024-04-05T13:14:50.052Z,29.46
2024-04-05T13:15:54.250Z,29.30
2024-04-05T13:16:56.756Z,29.44
2024-04-05T13:17:59.248Z,29.93
2024-04-05T13:19:02.162Z,29.57
2024-04-05T13:20:05.752Z,29.34
2024-04-05T13:21:13.474Z,29.29
2024-04-05T13:22:16.044Z,29.62
2024-04-05T13:23:18.595Z,29.39
2024-04-05T13:24:20.991Z,29.93
2024-04-05T13:25:25.271Z,29.94
2024-04-05T13:26:27.806Z,29.75
2024-04-05T13:27:31.027Z,29.27
2024-04-05T13:28:34.082Z,29.68
2024-04-05T13:29:36.478Z,29.98
2024-04-05T13:30:39.032Z,29.69
2024-04-05T13:31:41.507Z,30.11
2024-04-05T13:32:43.984Z,30.08
2024-04-05T13:33:46.843Z,29.81